Sven Haas

Ojeador - VfB Stuttgart
22 Feb 2028
Martes
Continuar

Personalidad

Adaptabilidad (2) Ambición (3) Controversia (19) Lealtad (6) Presión (7) Profesionalismo (9) Deportividad (2) Temperamento (12)

Perfil

Estilo de dirección Democrático
Licencia Nacional A
Determinación 15
Gestión de personas 11
Motivación 12
Disciplina 9
Satisfacción laboral
100%
Fatiga
0%
Cargo Ojeador
Salario 34.3K p/s
Contrato 14.03.2030

Rendimiento

Comportamiento Bueno
Efectividad del entrenamiento
55%
Desarrollo de jugadores
35%
Prevención de lesiones
70%
Implementación táctica
55%

Eventos recientes

Asistió a una reunión de captación 7d atrás
Asistió a una reunión de captación 14d atrás
Recomendó un objetivo de fichaje 14d atrás
Observó un partido 14d atrás
Asistió a una reunión de captación 21d atrás
Recomendó un objetivo de fichaje 21d atrás
Observó un partido 21d atrás
Observó un partido 28d atrás

Actualmente siguiendo

90
Jugador Club Estado Habilidad Confianza Observado Última observación Último voto
Giacomo Bonaventura Borussia Dortmund Perdido 143 / 144 72% 1 17.01.2028 Aprobar
Christian Günter SC Freiburg Perdido 139 / 132 72% 1 10.01.2028 Aprobar
Ethan Nwaneri Arsenal Activo 153 / 159 40% 1 10.01.2028 -
Luca Williams-Barnett Tranmere Rovers Negociando 126 / 122 40% 1 10.01.2028 -
Josh Nichols Tranmere Rovers Activo 118 / 118 40% 1 10.01.2028 -
Josh Keeley Tigres Activo 137 / 142 40% 2 31.12.2027 -
Joe Whitworth Stockport County Activo 123 / 120 40% 1 31.12.2027 -
Christ Inao Oulaï Fiorentina Activo 138 / 137 40% 2 16.08.2027 -
Marc Bernal Real Sociedad Activo 150 / 160 40% 2 16.08.2027 -
Jesús Rodríguez Como Activo 155 / 145 40% 1 16.08.2027 -
Sergio Barlocco Trento Activo 110 / 124 40% 2 10.08.2027 -
Robin Roefs Sunderland Activo 149 / 152 40% 1 10.08.2027 -
Walid Juma Al Shaab Activo 117 / 106 40% 1 10.08.2027 -
Matías Gómez Granada Activo 120 / 125 40% 2 27.07.2027 -
Yusi Alavés Activo 130 / 133 40% 2 27.07.2027 -
Josh King Chelsea Activo 147 / 141 40% 1 19.07.2027 -
Jan Bürger Gillingham Activo 106 / 122 40% 1 31.05.2027 -
Niklas Steffen Thun Activo 114 / 116 40% 1 18.01.2027 -
Bradley Mabunda SuperSport United Activo 105 / 104 40% 1 18.01.2027 -
Ousmane Dembélé Paris Saint-Germain Activo 192 / 176 40% 4 31.12.2026 -
Ferran Torres Paris Saint-Germain Activo 167 / 170 40% 2 31.12.2026 -
Álex Baena Atlético Madrid Activo 162 / 160 40% 3 30.12.2026 -
Gavi Barcelona Activo 152 / 156 40% 4 30.12.2026 -
Marcus Rashford Manchester United Activo 165 / 148 40% 1 30.12.2026 -
Alejandro Grimaldo Atlético Madrid Activo 164 / 159 40% 2 28.12.2026 -
Matheus Cunha Manchester United Activo 165 / 161 40% 2 28.12.2026 -
Nico Williams Athletic Bilbao Activo 173 / 171 40% 5 28.12.2026 -
Cody Gakpo Liverpool Activo 159 / 153 40% 2 28.12.2026 -
Ozziel Herrera Tigres Activo 130 / 130 40% 1 28.12.2026 -
Matt O'Riley Brighton Activo 144 / 151 40% 3 26.12.2026 -
Nicolas Jackson Aston Villa Activo 153 / 141 40% 2 26.12.2026 -
Martin Ødegaard Arsenal Activo 171 / 169 40% 3 23.12.2026 -
Kai Havertz Arsenal Activo 157 / 153 40% 9 23.12.2026 -
João Pedro Chelsea Activo 148 / 157 40% 3 23.12.2026 -
Kang-In Lee Atlético Madrid Activo 161 / 166 40% 4 22.12.2026 -
Kiernan Dewsbury-Hall Everton Activo 154 / 145 40% 2 22.12.2026 -
Mason Mount Manchester United Activo 162 / 159 40% 2 21.12.2026 -
Marco Asensio Fenerbahce Perdido 163 / 160 40% 2 20.12.2026 -
Callum Hudson-Odoi Nottingham Forest Activo 143 / 158 40% 1 17.12.2026 -
Pablo Barrios Atlético Madrid Activo 156 / 163 40% 2 15.12.2026 -
Andrés Martín Racing Santander Activo 133 / 130 40% 4 15.12.2026 -
Gabriel Martinelli Brighton Activo 160 / 160 40% 4 12.12.2026 -
Maurits Kjærgaard Red Bull Salzburg Activo 126 / 126 40% 1 12.12.2026 -
Thiago Brentford Activo 141 / 148 40% 1 12.12.2026 -
Juan-José Perea Zurich Activo 127 / 124 40% 2 11.12.2026 -
Jonathan Dubasin Osasuna Activo 146 / 140 40% 1 11.12.2026 -
Tani Oluwaseyi Villarreal Activo 145 / 138 40% 1 10.12.2026 -
Ibrahim Salah Basel Activo 125 / 129 40% 1 06.12.2026 -
Philippe Keny Zurich Activo 125 / 116 40% 1 05.12.2026 -
Johnny Cardoso Atlético Madrid Activo 162 / 153 40% 3 03.12.2026 -
Ademola Lookman Atlético Madrid Activo 151 / 152 40% 2 03.12.2026 -
Álex Berenguer Athletic Bilbao Activo 145 / 145 40% 2 01.12.2026 -
Iliman N'Diaye Everton Activo 153 / 153 40% 2 01.12.2026 -
Rômulo RB Leipzig Activo 138 / 137 40% 1 01.12.2026 -
Themba Ngcobo SuperSport United Activo 106 / 128 40% 2 27.11.2026 -
Georginio Rutter Brighton Activo 148 / 141 40% 2 24.11.2026 -
Declan Rice Arsenal Activo 186 / 182 40% 3 23.11.2026 -
Sinan Karweina Luzern Activo 112 / 113 40% 1 20.11.2026 -
Sandro Tonali Tottenham Activo 164 / 170 40% 4 19.11.2026 -
Alexis Mac Allister Liverpool Activo 170 / 153 40% 5 14.11.2026 -
Luis Díaz Bayern Munich Activo 176 / 163 40% 1 09.11.2026 -
Ez Abde Girona Activo 140 / 156 40% 1 02.11.2026 -
Ayo Akinola Vaduz Activo 111 / 116 40% 1 31.10.2026 -
Carlos Vicente Birmingham Activo 146 / 144 40% 1 29.10.2026 -
Oihan Sancet Athletic Bilbao Activo 166 / 157 40% 1 27.10.2026 -
Aimar Osasuna Activo 155 / 144 40% 1 22.10.2026 -
Sota Kitano Luzern Activo 117 / 133 40% 2 18.10.2026 -
Rayan Cherki Manchester City Activo 170 / 162 40% 2 13.10.2026 -
Rilind Nivokazi Sion Activo 118 / 118 40% 1 08.10.2026 -
Rafael Navarro St. Louis CITY SC Activo 129 / 123 40% 1 07.10.2026 -
Jérémy Doku Manchester City Activo 167 / 172 40% 2 30.09.2026 -
Santi Comesaña Villarreal Activo 148 / 157 40% 1 29.09.2026 -
Aurélien Tchouaméni Real Madrid Activo 174 / 160 40% 2 26.09.2026 -
Ryan Gravenberch Liverpool Activo 163 / 162 40% 1 26.09.2026 -
Nadiem Amiri Mainz 05 Activo 147 / 151 40% 1 23.09.2026 -
Moisés Caicedo Chelsea Activo 173 / 169 40% 2 22.09.2026 -
Ibrahima Konaté Real Madrid Activo 166 / 151 40% 1 22.09.2026 -
Matheus Nunes Manchester City Activo 165 / 164 40% 1 21.09.2026 -
Nico Schlotterbeck Borussia Dortmund Activo 164 / 160 40% 1 19.09.2026 -
Adam Wharton Crystal Palace Activo 154 / 150 40% 1 19.09.2026 -
Dominik Szoboszlai Liverpool Activo 170 / 160 40% 1 19.09.2026 -
Eduardo Camavinga Real Madrid Activo 155 / 165 40% 1 19.09.2026 -
Xaver Schlager Nottingham Forest Activo 147 / 153 40% 1 16.09.2026 -
Mats Wieffer Brighton Activo 146 / 145 40% 1 16.09.2026 -
Aleksandar Pavlović Bayern Munich Activo 142 / 156 40% 1 15.09.2026 -
Martín Zubimendi Arsenal Activo 153 / 165 40% 1 14.09.2026 -
Xavi Simons Tottenham Activo 162 / 151 40% 1 14.09.2026 -
Jan Paul van Hecke Tottenham Activo 150 / 165 40% 1 11.09.2026 -
Sven Botman Newcastle United Activo 157 / 163 40% 1 11.09.2026 -
Tyler Adams Bournemouth Activo 151 / 160 40% 1 08.09.2026 -